sensor_id;sensor_type;location;lat;lon;timestamp;P1;durP1;ratioP1;P2;durP2;ratioP2
34459;SDS011;20704;51.260;22.558;2024-01-27T00:00:31;22.40;;;11.53;;
34459;SDS011;20704;51.260;22.558;2024-01-27T00:02:54;24.83;;;10.73;;
34459;SDS011;20704;51.260;22.558;2024-01-27T00:04:57;28.00;;;13.40;;
34459;SDS011;20704;51.260;22.558;2024-01-27T00:06:59;22.73;;;12.00;;
34459;SDS011;20704;51.260;22.558;2024-01-27T00:09:02;25.03;;;11.37;;
34459;SDS011;20704;51.260;22.558;2024-01-27T00:11:07;25.27;;;11.23;;
34459;SDS011;20704;51.260;22.558;2024-01-27T00:13:10;30.33;;;12.10;;
34459;SDS011;20704;51.260;22.558;2024-01-27T00:15:13;24.90;;;12.10;;
34459;SDS011;20704;51.260;22.558;2024-01-27T00:17:16;23.30;;;11.60;;
34459;SDS011;20704;51.260;22.558;2024-01-27T00:19:18;23.50;;;11.40;;
34459;SDS011;20704;51.260;22.558;2024-01-27T00:21:21;21.73;;;10.67;;
34459;SDS011;20704;51.260;22.558;2024-01-27T00:23:24;24.67;;;10.93;;
34459;SDS011;20704;51.260;22.558;2024-01-27T00:25:27;24.00;;;10.53;;
34459;SDS011;20704;51.260;22.558;2024-01-27T00:27:29;22.17;;;10.87;;
34459;SDS011;20704;51.260;22.558;2024-01-27T00:29:32;25.30;;;11.60;;
34459;SDS011;20704;51.260;22.558;2024-01-27T00:31:35;23.80;;;10.70;;
34459;SDS011;20704;51.260;22.558;2024-01-27T00:33:38;20.50;;;9.93;;
34459;SDS011;20704;51.260;22.558;2024-01-27T00:35:41;21.33;;;10.70;;
34459;SDS011;20704;51.260;22.558;2024-01-27T00:37:44;22.20;;;10.97;;
34459;SDS011;20704;51.260;22.558;2024-01-27T00:39:46;20.30;;;10.07;;
34459;SDS011;20704;51.260;22.558;2024-01-27T00:41:50;18.03;;;9.20;;
34459;SDS011;20704;51.260;22.558;2024-01-27T00:43:53;20.40;;;9.70;;
34459;SDS011;20704;51.260;22.558;2024-01-27T00:45:56;20.83;;;9.83;;
34459;SDS011;20704;51.260;22.558;2024-01-27T00:47:59;20.50;;;9.50;;
34459;SDS011;20704;51.260;22.558;2024-01-27T00:50:02;18.67;;;9.43;;
34459;SDS011;20704;51.260;22.558;2024-01-27T00:52:05;19.07;;;9.60;;
34459;SDS011;20704;51.260;22.558;2024-01-27T00:54:07;16.63;;;8.23;;
34459;SDS011;20704;51.260;22.558;2024-01-27T00:56:10;18.27;;;9.47;;
34459;SDS011;20704;51.260;22.558;2024-01-27T00:58:13;18.20;;;8.73;;
34459;SDS011;20704;51.260;22.558;2024-01-27T01:00:15;15.97;;;8.13;;
34459;SDS011;20704;51.260;22.558;2024-01-27T01:02:18;17.07;;;8.60;;
34459;SDS011;20704;51.260;22.558;2024-01-27T01:04:20;20.10;;;9.80;;
34459;SDS011;20704;51.260;22.558;2024-01-27T01:06:23;19.23;;;9.13;;
34459;SDS011;20704;51.260;22.558;2024-01-27T01:08:26;17.80;;;8.70;;
34459;SDS011;20704;51.260;22.558;2024-01-27T01:10:29;20.17;;;8.27;;
34459;SDS011;20704;51.260;22.558;2024-01-27T01:12:32;17.13;;;8.33;;
34459;SDS011;20704;51.260;22.558;2024-01-27T01:14:35;15.30;;;8.43;;
34459;SDS011;20704;51.260;22.558;2024-01-27T01:16:38;17.17;;;9.63;;
34459;SDS011;20704;51.260;22.558;2024-01-27T01:18:41;16.57;;;10.03;;
34459;SDS011;20704;51.260;22.558;2024-01-27T01:20:44;18.43;;;8.37;;
34459;SDS011;20704;51.260;22.558;2024-01-27T01:22:47;16.27;;;8.73;;
34459;SDS011;20704;51.260;22.558;2024-01-27T01:24:50;16.53;;;8.73;;
34459;SDS011;20704;51.260;22.558;2024-01-27T01:26:52;16.57;;;7.87;;
34459;SDS011;20704;51.260;22.558;2024-01-27T01:28:55;16.40;;;7.00;;
34459;SDS011;20704;51.260;22.558;2024-01-27T01:30:58;15.30;;;8.40;;
34459;SDS011;20704;51.260;22.558;2024-01-27T01:33:00;17.33;;;10.10;;
34459;SDS011;20704;51.260;22.558;2024-01-27T01:35:04;16.53;;;9.37;;
34459;SDS011;20704;51.260;22.558;2024-01-27T01:37:07;17.13;;;8.20;;
34459;SDS011;20704;51.260;22.558;2024-01-27T01:39:10;15.80;;;9.13;;
34459;SDS011;20704;51.260;22.558;2024-01-27T01:41:14;20.03;;;8.87;;
34459;SDS011;20704;51.260;22.558;2024-01-27T01:43:17;17.07;;;8.43;;
34459;SDS011;20704;51.260;22.558;2024-01-27T01:45:19;16.97;;;8.17;;
34459;SDS011;20704;51.260;22.558;2024-01-27T01:47:22;15.37;;;8.50;;
34459;SDS011;20704;51.260;22.558;2024-01-27T01:49:26;16.37;;;8.87;;
34459;SDS011;20704;51.260;22.558;2024-01-27T01:51:29;14.53;;;7.87;;
34459;SDS011;20704;51.260;22.558;2024-01-27T01:53:31;15.37;;;7.97;;
34459;SDS011;20704;51.260;22.558;2024-01-27T01:55:34;15.23;;;8.00;;
34459;SDS011;20704;51.260;22.558;2024-01-27T01:57:37;18.33;;;8.27;;
34459;SDS011;20704;51.260;22.558;2024-01-27T01:59:40;17.57;;;9.17;;
34459;SDS011;20704;51.260;22.558;2024-01-27T02:01:43;17.33;;;8.23;;
34459;SDS011;20704;51.260;22.558;2024-01-27T02:03:54;19.60;;;9.20;;
34459;SDS011;20704;51.260;22.558;2024-01-27T02:05:56;19.40;;;8.50;;
34459;SDS011;20704;51.260;22.558;2024-01-27T02:07:59;17.37;;;8.57;;
34459;SDS011;20704;51.260;22.558;2024-01-27T02:10:06;14.80;;;8.27;;
34459;SDS011;20704;51.260;22.558;2024-01-27T02:12:15;21.47;;;10.70;;
34459;SDS011;20704;51.260;22.558;2024-01-27T02:14:18;21.45;;;9.32;;
34459;SDS011;20704;51.260;22.558;2024-01-27T02:16:21;21.02;;;9.40;;
34459;SDS011;20704;51.260;22.558;2024-01-27T02:18:24;19.25;;;8.43;;
34459;SDS011;20704;51.260;22.558;2024-01-27T02:20:26;22.38;;;10.00;;
34459;SDS011;20704;51.260;22.558;2024-01-27T02:22:29;16.85;;;8.20;;
34459;SDS011;20704;51.260;22.558;2024-01-27T02:24:32;12.88;;;7.40;;
34459;SDS011;20704;51.260;22.558;2024-01-27T02:26:35;19.80;;;8.13;;
34459;SDS011;20704;51.260;22.558;2024-01-27T02:28:38;14.17;;;7.13;;
34459;SDS011;20704;51.260;22.558;2024-01-27T02:30:40;12.98;;;6.07;;
34459;SDS011;20704;51.260;22.558;2024-01-27T02:32:43;11.77;;;4.80;;
34459;SDS011;20704;51.260;22.558;2024-01-27T02:34:46;8.80;;;4.07;;
34459;SDS011;20704;51.260;22.558;2024-01-27T02:36:49;8.23;;;3.87;;
34459;SDS011;20704;51.260;22.558;2024-01-27T02:38:52;8.23;;;3.80;;
34459;SDS011;20704;51.260;22.558;2024-01-27T02:40:54;7.97;;;4.57;;
34459;SDS011;20704;51.260;22.558;2024-01-27T02:42:57;6.60;;;3.17;;
34459;SDS011;20704;51.260;22.558;2024-01-27T02:45:00;6.80;;;2.85;;
34459;SDS011;20704;51.260;22.558;2024-01-27T02:47:03;7.10;;;3.90;;
34459;SDS011;20704;51.260;22.558;2024-01-27T02:49:06;8.77;;;3.28;;
34459;SDS011;20704;51.260;22.558;2024-01-27T02:51:08;6.60;;;3.38;;
34459;SDS011;20704;51.260;22.558;2024-01-27T02:53:12;7.13;;;3.42;;
34459;SDS011;20704;51.260;22.558;2024-01-27T02:55:14;8.32;;;3.33;;
34459;SDS011;20704;51.260;22.558;2024-01-27T02:57:17;9.85;;;2.95;;
34459;SDS011;20704;51.260;22.558;2024-01-27T02:59:21;14.17;;;4.50;;
34459;SDS011;20704;51.260;22.558;2024-01-27T03:01:24;5.70;;;2.97;;
34459;SDS011;20704;51.260;22.558;2024-01-27T03:03:26;12.30;;;3.30;;
34459;SDS011;20704;51.260;22.558;2024-01-27T03:05:31;7.18;;;3.38;;
34459;SDS011;20704;51.260;22.558;2024-01-27T03:07:34;4.68;;;2.03;;
34459;SDS011;20704;51.260;22.558;2024-01-27T03:09:37;7.45;;;2.60;;
34459;SDS011;20704;51.260;22.558;2024-01-27T03:11:39;4.68;;;1.90;;
34459;SDS011;20704;51.260;22.558;2024-01-27T03:13:42;8.93;;;1.88;;
34459;SDS011;20704;51.260;22.558;2024-01-27T03:15:47;7.60;;;2.00;;
34459;SDS011;20704;51.260;22.558;2024-01-27T03:17:51;4.70;;;1.40;;
34459;SDS011;20704;51.260;22.558;2024-01-27T03:19:53;8.13;;;1.67;;
34459;SDS011;20704;51.260;22.558;2024-01-27T03:21:56;6.25;;;1.23;;
34459;SDS011;20704;51.260;22.558;2024-01-27T03:23:59;5.20;;;2.03;;
34459;SDS011;20704;51.260;22.558;2024-01-27T03:26:02;6.15;;;1.55;;
34459;SDS011;20704;51.260;22.558;2024-01-27T03:28:05;5.35;;;2.63;;
34459;SDS011;20704;51.260;22.558;2024-01-27T03:30:09;11.40;;;2.53;;
34459;SDS011;20704;51.260;22.558;2024-01-27T03:32:11;5.55;;;2.65;;
34459;SDS011;20704;51.260;22.558;2024-01-27T03:34:14;5.15;;;1.40;;
34459;SDS011;20704;51.260;22.558;2024-01-27T03:36:19;6.88;;;1.50;;
34459;SDS011;20704;51.260;22.558;2024-01-27T03:38:22;7.93;;;1.80;;
34459;SDS011;20704;51.260;22.558;2024-01-27T03:40:25;9.85;;;2.85;;
34459;SDS011;20704;51.260;22.558;2024-01-27T03:42:27;9.50;;;2.78;;
34459;SDS011;20704;51.260;22.558;2024-01-27T03:44:30;7.78;;;2.55;;
34459;SDS011;20704;51.260;22.558;2024-01-27T03:46:33;8.95;;;3.00;;
34459;SDS011;20704;51.260;22.558;2024-01-27T03:48:36;7.18;;;2.97;;
34459;SDS011;20704;51.260;22.558;2024-01-27T03:50:40;6.75;;;3.03;;
34459;SDS011;20704;51.260;22.558;2024-01-27T03:52:42;9.95;;;2.60;;
34459;SDS011;20704;51.260;22.558;2024-01-27T03:54:45;9.55;;;2.80;;
34459;SDS011;20704;51.260;22.558;2024-01-27T03:56:48;9.77;;;2.20;;
34459;SDS011;20704;51.260;22.558;2024-01-27T03:58:51;11.50;;;3.30;;
34459;SDS011;20704;51.260;22.558;2024-01-27T04:00:53;9.20;;;1.90;;
34459;SDS011;20704;51.260;22.558;2024-01-27T04:02:56;7.07;;;1.63;;
34459;SDS011;20704;51.260;22.558;2024-01-27T04:04:59;5.03;;;1.60;;
34459;SDS011;20704;51.260;22.558;2024-01-27T04:07:02;4.40;;;1.45;;
34459;SDS011;20704;51.260;22.558;2024-01-27T04:09:05;7.43;;;1.87;;
34459;SDS011;20704;51.260;22.558;2024-01-27T04:11:21;7.25;;;2.38;;
34459;SDS011;20704;51.260;22.558;2024-01-27T04:13:24;5.55;;;1.33;;
34459;SDS011;20704;51.260;22.558;2024-01-27T04:15:27;6.43;;;1.38;;
34459;SDS011;20704;51.260;22.558;2024-01-27T04:17:29;11.57;;;1.95;;
34459;SDS011;20704;51.260;22.558;2024-01-27T04:19:32;4.53;;;1.30;;
34459;SDS011;20704;51.260;22.558;2024-01-27T04:21:34;5.88;;;1.13;;
34459;SDS011;20704;51.260;22.558;2024-01-27T04:23:38;6.72;;;2.22;;
34459;SDS011;20704;51.260;22.558;2024-01-27T04:25:40;6.00;;;1.88;;
34459;SDS011;20704;51.260;22.558;2024-01-27T04:27:43;6.28;;;1.60;;
34459;SDS011;20704;51.260;22.558;2024-01-27T04:29:46;6.32;;;1.30;;
34459;SDS011;20704;51.260;22.558;2024-01-27T04:31:49;5.80;;;1.23;;
34459;SDS011;20704;51.260;22.558;2024-01-27T04:33:51;5.50;;;1.80;;
34459;SDS011;20704;51.260;22.558;2024-01-27T04:35:54;8.30;;;1.40;;
34459;SDS011;20704;51.260;22.558;2024-01-27T04:37:57;5.30;;;1.42;;
34459;SDS011;20704;51.260;22.558;2024-01-27T04:40:01;5.93;;;1.88;;
34459;SDS011;20704;51.260;22.558;2024-01-27T04:42:03;10.10;;;1.90;;
34459;SDS011;20704;51.260;22.558;2024-01-27T04:44:08;8.80;;;2.05;;
34459;SDS011;20704;51.260;22.558;2024-01-27T04:46:10;5.00;;;1.90;;
34459;SDS011;20704;51.260;22.558;2024-01-27T04:48:13;13.63;;;1.95;;
34459;SDS011;20704;51.260;22.558;2024-01-27T04:50:16;6.38;;;1.75;;
34459;SDS011;20704;51.260;22.558;2024-01-27T04:52:19;10.68;;;2.90;;
34459;SDS011;20704;51.260;22.558;2024-01-27T04:54:22;10.05;;;1.20;;
34459;SDS011;20704;51.260;22.558;2024-01-27T04:56:25;7.80;;;1.70;;
34459;SDS011;20704;51.260;22.558;2024-01-27T04:58:28;7.68;;;1.58;;
34459;SDS011;20704;51.260;22.558;2024-01-27T05:00:31;7.15;;;1.90;;
34459;SDS011;20704;51.260;22.558;2024-01-27T05:02:34;10.25;;;1.48;;
34459;SDS011;20704;51.260;22.558;2024-01-27T05:04:37;10.93;;;1.33;;
34459;SDS011;20704;51.260;22.558;2024-01-27T05:06:43;18.05;;;2.55;;
34459;SDS011;20704;51.260;22.558;2024-01-27T05:10:51;11.02;;;2.42;;
34459;SDS011;20704;51.260;22.558;2024-01-27T05:12:59;11.45;;;1.80;;
34459;SDS011;20704;51.260;22.558;2024-01-27T05:15:01;10.63;;;2.55;;
34459;SDS011;20704;51.260;22.558;2024-01-27T05:17:04;10.52;;;2.42;;
34459;SDS011;20704;51.260;22.558;2024-01-27T05:19:07;9.07;;;2.80;;
34459;SDS011;20704;51.260;22.558;2024-01-27T05:21:10;6.32;;;1.88;;
34459;SDS011;20704;51.260;22.558;2024-01-27T05:23:12;8.40;;;1.40;;
34459;SDS011;20704;51.260;22.558;2024-01-27T05:25:15;7.60;;;1.50;;
34459;SDS011;20704;51.260;22.558;2024-01-27T05:27:18;5.03;;;1.65;;
34459;SDS011;20704;51.260;22.558;2024-01-27T05:29:21;9.25;;;2.45;;
34459;SDS011;20704;51.260;22.558;2024-01-27T05:31:23;8.23;;;1.42;;
34459;SDS011;20704;51.260;22.558;2024-01-27T05:33:28;12.93;;;1.80;;
34459;SDS011;20704;51.260;22.558;2024-01-27T05:35:31;11.70;;;1.58;;
34459;SDS011;20704;51.260;22.558;2024-01-27T05:37:34;4.28;;;1.55;;
34459;SDS011;20704;51.260;22.558;2024-01-27T05:39:36;8.20;;;1.98;;
34459;SDS011;20704;51.260;22.558;2024-01-27T05:41:39;11.35;;;3.38;;
34459;SDS011;20704;51.260;22.558;2024-01-27T05:43:42;10.80;;;2.55;;
34459;SDS011;20704;51.260;22.558;2024-01-27T05:45:45;9.35;;;2.20;;
34459;SDS011;20704;51.260;22.558;2024-01-27T05:47:48;7.95;;;2.40;;
34459;SDS011;20704;51.260;22.558;2024-01-27T05:49:51;6.72;;;2.40;;
34459;SDS011;20704;51.260;22.558;2024-01-27T05:51:53;7.05;;;1.67;;
34459;SDS011;20704;51.260;22.558;2024-01-27T05:53:56;8.20;;;2.40;;
34459;SDS011;20704;51.260;22.558;2024-01-27T05:55:59;9.88;;;2.85;;
34459;SDS011;20704;51.260;22.558;2024-01-27T05:58:02;5.65;;;1.83;;
34459;SDS011;20704;51.260;22.558;2024-01-27T06:00:05;12.63;;;2.90;;
34459;SDS011;20704;51.260;22.558;2024-01-27T06:02:08;10.23;;;2.60;;
34459;SDS011;20704;51.260;22.558;2024-01-27T06:04:11;7.07;;;1.70;;
34459;SDS011;20704;51.260;22.558;2024-01-27T06:06:17;6.95;;;2.17;;
34459;SDS011;20704;51.260;22.558;2024-01-27T06:08:19;11.35;;;3.38;;
34459;SDS011;20704;51.260;22.558;2024-01-27T06:10:22;7.28;;;2.00;;
34459;SDS011;20704;51.260;22.558;2024-01-27T06:12:26;19.10;;;2.65;;
34459;SDS011;20704;51.260;22.558;2024-01-27T06:14:29;8.15;;;1.80;;
34459;SDS011;20704;51.260;22.558;2024-01-27T06:16:32;10.55;;;1.48;;
34459;SDS011;20704;51.260;22.558;2024-01-27T06:18:35;6.07;;;2.40;;
34459;SDS011;20704;51.260;22.558;2024-01-27T06:20:38;8.10;;;1.65;;
34459;SDS011;20704;51.260;22.558;2024-01-27T06:22:42;13.05;;;3.33;;
34459;SDS011;20704;51.260;22.558;2024-01-27T06:24:45;9.82;;;2.63;;
34459;SDS011;20704;51.260;22.558;2024-01-27T06:26:48;9.50;;;2.17;;
34459;SDS011;20704;51.260;22.558;2024-01-27T06:28:50;6.43;;;3.00;;
34459;SDS011;20704;51.260;22.558;2024-01-27T06:30:53;11.50;;;2.22;;
34459;SDS011;20704;51.260;22.558;2024-01-27T06:32:56;7.65;;;1.80;;
34459;SDS011;20704;51.260;22.558;2024-01-27T06:34:59;6.93;;;1.90;;
34459;SDS011;20704;51.260;22.558;2024-01-27T06:37:02;7.35;;;1.55;;
34459;SDS011;20704;51.260;22.558;2024-01-27T06:39:04;8.18;;;1.77;;
34459;SDS011;20704;51.260;22.558;2024-01-27T06:41:07;23.45;;;3.33;;
34459;SDS011;20704;51.260;22.558;2024-01-27T06:43:12;12.88;;;1.95;;
34459;SDS011;20704;51.260;22.558;2024-01-27T06:45:14;6.88;;;2.17;;
34459;SDS011;20704;51.260;22.558;2024-01-27T06:47:17;5.85;;;1.75;;
34459;SDS011;20704;51.260;22.558;2024-01-27T06:49:20;9.77;;;1.88;;
34459;SDS011;20704;51.260;22.558;2024-01-27T06:51:23;8.73;;;2.00;;
34459;SDS011;20704;51.260;22.558;2024-01-27T06:53:25;9.40;;;1.83;;
34459;SDS011;20704;51.260;22.558;2024-01-27T06:55:28;13.18;;;3.25;;
34459;SDS011;20704;51.260;22.558;2024-01-27T06:57:31;7.32;;;2.08;;
34459;SDS011;20704;51.260;22.558;2024-01-27T06:59:34;7.22;;;1.83;;
34459;SDS011;20704;51.260;22.558;2024-01-27T07:01:37;9.57;;;2.90;;
34459;SDS011;20704;51.260;22.558;2024-01-27T07:03:40;5.95;;;2.13;;
34459;SDS011;20704;51.260;22.558;2024-01-27T07:05:43;8.18;;;3.50;;
34459;SDS011;20704;51.260;22.558;2024-01-27T07:07:45;9.07;;;2.88;;
34459;SDS011;20704;51.260;22.558;2024-01-27T07:09:48;18.02;;;2.55;;
34459;SDS011;20704;51.260;22.558;2024-01-27T07:11:51;9.98;;;1.83;;
34459;SDS011;20704;51.260;22.558;2024-01-27T07:13:54;20.23;;;3.08;;
34459;SDS011;20704;51.260;22.558;2024-01-27T07:15:57;11.13;;;3.70;;
34459;SDS011;20704;51.260;22.558;2024-01-27T07:18:00;6.45;;;1.60;;
34459;SDS011;20704;51.260;22.558;2024-01-27T07:20:03;16.77;;;1.92;;
34459;SDS011;20704;51.260;22.558;2024-01-27T07:22:07;8.70;;;2.10;;
34459;SDS011;20704;51.260;22.558;2024-01-27T07:24:09;11.60;;;2.40;;
34459;SDS011;20704;51.260;22.558;2024-01-27T07:26:12;9.15;;;2.03;;
34459;SDS011;20704;51.260;22.558;2024-01-27T07:28:15;14.88;;;2.33;;
34459;SDS011;20704;51.260;22.558;2024-01-27T07:30:20;9.48;;;2.15;;
34459;SDS011;20704;51.260;22.558;2024-01-27T07:32:23;12.98;;;2.90;;
34459;SDS011;20704;51.260;22.558;2024-01-27T07:34:27;7.05;;;2.63;;
34459;SDS011;20704;51.260;22.558;2024-01-27T07:36:30;12.40;;;3.28;;
34459;SDS011;20704;51.260;22.558;2024-01-27T07:38:34;10.27;;;1.98;;
34459;SDS011;20704;51.260;22.558;2024-01-27T07:40:37;10.95;;;3.83;;
34459;SDS011;20704;51.260;22.558;2024-01-27T07:42:40;9.77;;;2.08;;
34459;SDS011;20704;51.260;22.558;2024-01-27T07:44:43;17.35;;;4.57;;
34459;SDS011;20704;51.260;22.558;2024-01-27T07:46:46;14.50;;;3.80;;
34459;SDS011;20704;51.260;22.558;2024-01-27T07:48:49;9.68;;;2.72;;
34459;SDS011;20704;51.260;22.558;2024-01-27T07:50:51;12.55;;;2.35;;
34459;SDS011;20704;51.260;22.558;2024-01-27T07:52:54;11.80;;;2.95;;
34459;SDS011;20704;51.260;22.558;2024-01-27T07:54:57;11.20;;;2.63;;
34459;SDS011;20704;51.260;22.558;2024-01-27T07:57:00;11.30;;;2.40;;
34459;SDS011;20704;51.260;22.558;2024-01-27T07:59:02;14.63;;;2.63;;
34459;SDS011;20704;51.260;22.558;2024-01-27T08:01:05;13.45;;;2.83;;
34459;SDS011;20704;51.260;22.558;2024-01-27T08:03:08;15.32;;;2.65;;
34459;SDS011;20704;51.260;22.558;2024-01-27T08:05:10;10.23;;;2.47;;
34459;SDS011;20704;51.260;22.558;2024-01-27T08:07:13;8.00;;;2.55;;
34459;SDS011;20704;51.260;22.558;2024-01-27T08:09:18;13.02;;;2.58;;
34459;SDS011;20704;51.260;22.558;2024-01-27T08:11:21;7.03;;;2.85;;
34459;SDS011;20704;51.260;22.558;2024-01-27T08:13:23;12.23;;;3.28;;
34459;SDS011;20704;51.260;22.558;2024-01-27T08:15:26;12.48;;;3.58;;
34459;SDS011;20704;51.260;22.558;2024-01-27T08:17:29;13.50;;;3.30;;
34459;SDS011;20704;51.260;22.558;2024-01-27T08:19:32;7.40;;;2.40;;
34459;SDS011;20704;51.260;22.558;2024-01-27T08:21:35;7.82;;;3.75;;
34459;SDS011;20704;51.260;22.558;2024-01-27T08:23:37;10.57;;;2.80;;
34459;SDS011;20704;51.260;22.558;2024-01-27T08:25:40;11.30;;;2.08;;
34459;SDS011;20704;51.260;22.558;2024-01-27T08:27:46;15.07;;;4.07;;
34459;SDS011;20704;51.260;22.558;2024-01-27T08:29:49;12.63;;;2.20;;
34459;SDS011;20704;51.260;22.558;2024-01-27T08:31:51;9.07;;;3.22;;
34459;SDS011;20704;51.260;22.558;2024-01-27T08:33:54;9.68;;;3.10;;
34459;SDS011;20704;51.260;22.558;2024-01-27T08:35:57;10.88;;;2.75;;
34459;SDS011;20704;51.260;22.558;2024-01-27T08:38:00;11.23;;;2.63;;
34459;SDS011;20704;51.260;22.558;2024-01-27T08:40:05;9.38;;;2.78;;
34459;SDS011;20704;51.260;22.558;2024-01-27T08:42:09;14.45;;;2.72;;
34459;SDS011;20704;51.260;22.558;2024-01-27T08:44:12;14.95;;;2.97;;
34459;SDS011;20704;51.260;22.558;2024-01-27T08:46:15;6.78;;;1.88;;
34459;SDS011;20704;51.260;22.558;2024-01-27T08:48:19;11.13;;;2.33;;
34459;SDS011;20704;51.260;22.558;2024-01-27T08:50:22;7.00;;;1.83;;
34459;SDS011;20704;51.260;22.558;2024-01-27T08:52:25;8.85;;;2.25;;
34459;SDS011;20704;51.260;22.558;2024-01-27T08:54:28;11.90;;;1.90;;
34459;SDS011;20704;51.260;22.558;2024-01-27T08:56:31;10.35;;;2.80;;
34459;SDS011;20704;51.260;22.558;2024-01-27T08:58:34;10.52;;;1.90;;
34459;SDS011;20704;51.260;22.558;2024-01-27T09:00:36;6.93;;;2.75;;
34459;SDS011;20704;51.260;22.558;2024-01-27T09:02:40;6.93;;;3.20;;
34459;SDS011;20704;51.260;22.558;2024-01-27T09:04:42;9.77;;;2.42;;
34459;SDS011;20704;51.260;22.558;2024-01-27T09:06:45;7.55;;;2.30;;
34459;SDS011;20704;51.260;22.558;2024-01-27T09:08:48;10.27;;;2.95;;
34459;SDS011;20704;51.260;22.558;2024-01-27T09:10:50;6.13;;;2.75;;
34459;SDS011;20704;51.260;22.558;2024-01-27T09:12:53;6.72;;;2.30;;
34459;SDS011;20704;51.260;22.558;2024-01-27T09:14:56;13.38;;;2.90;;
34459;SDS011;20704;51.260;22.558;2024-01-27T09:17:02;8.70;;;2.25;;
34459;SDS011;20704;51.260;22.558;2024-01-27T09:19:04;8.55;;;2.28;;
34459;SDS011;20704;51.260;22.558;2024-01-27T09:21:07;8.35;;;2.45;;
34459;SDS011;20704;51.260;22.558;2024-01-27T09:23:11;5.15;;;2.90;;
34459;SDS011;20704;51.260;22.558;2024-01-27T09:25:13;10.75;;;2.67;;
34459;SDS011;20704;51.260;22.558;2024-01-27T09:27:16;10.50;;;2.10;;
34459;SDS011;20704;51.260;22.558;2024-01-27T09:29:19;9.77;;;3.90;;
34459;SDS011;20704;51.260;22.558;2024-01-27T09:31:22;10.52;;;3.58;;
34459;SDS011;20704;51.260;22.558;2024-01-27T09:33:25;6.35;;;2.70;;
34459;SDS011;20704;51.260;22.558;2024-01-27T09:35:28;11.50;;;3.25;;
34459;SDS011;20704;51.260;22.558;2024-01-27T09:37:31;7.53;;;2.25;;
34459;SDS011;20704;51.260;22.558;2024-01-27T09:39:35;8.18;;;2.65;;
34459;SDS011;20704;51.260;22.558;2024-01-27T09:41:37;7.13;;;2.75;;
34459;SDS011;20704;51.260;22.558;2024-01-27T09:43:45;11.48;;;2.95;;
34459;SDS011;20704;51.260;22.558;2024-01-27T09:45:48;7.03;;;2.95;;
34459;SDS011;20704;51.260;22.558;2024-01-27T09:47:51;5.80;;;2.35;;
34459;SDS011;20704;51.260;22.558;2024-01-27T09:49:54;11.40;;;3.92;;
34459;SDS011;20704;51.260;22.558;2024-01-27T09:51:57;9.70;;;2.25;;
34459;SDS011;20704;51.260;22.558;2024-01-27T09:53:59;7.50;;;2.92;;
34459;SDS011;20704;51.260;22.558;2024-01-27T09:56:03;7.63;;;2.60;;
34459;SDS011;20704;51.260;22.558;2024-01-27T09:58:05;16.67;;;3.50;;
34459;SDS011;20704;51.260;22.558;2024-01-27T10:00:09;7.60;;;2.80;;
34459;SDS011;20704;51.260;22.558;2024-01-27T10:02:16;11.00;;;2.95;;
34459;SDS011;20704;51.260;22.558;2024-01-27T10:04:20;4.60;;;2.67;;
34459;SDS011;20704;51.260;22.558;2024-01-27T10:06:24;5.60;;;2.40;;
34459;SDS011;20704;51.260;22.558;2024-01-27T10:08:28;8.43;;;2.50;;
34459;SDS011;20704;51.260;22.558;2024-01-27T10:10:30;7.53;;;2.85;;
34459;SDS011;20704;51.260;22.558;2024-01-27T10:12:34;9.05;;;2.72;;
34459;SDS011;20704;51.260;22.558;2024-01-27T10:14:43;10.25;;;2.95;;
34459;SDS011;20704;51.260;22.558;2024-01-27T10:16:48;9.77;;;3.10;;
34459;SDS011;20704;51.260;22.558;2024-01-27T10:19:03;9.18;;;3.38;;
34459;SDS011;20704;51.260;22.558;2024-01-27T10:21:15;7.75;;;2.80;;
34459;SDS011;20704;51.260;22.558;2024-01-27T10:23:18;5.68;;;2.25;;
34459;SDS011;20704;51.260;22.558;2024-01-27T10:25:21;14.38;;;3.50;;
34459;SDS011;20704;51.260;22.558;2024-01-27T10:27:24;8.20;;;2.78;;
34459;SDS011;20704;51.260;22.558;2024-01-27T10:29:27;8.88;;;2.25;;
34459;SDS011;20704;51.260;22.558;2024-01-27T10:31:31;6.07;;;2.22;;
34459;SDS011;20704;51.260;22.558;2024-01-27T10:33:35;5.45;;;2.17;;
34459;SDS011;20704;51.260;22.558;2024-01-27T10:35:38;8.55;;;2.17;;
34459;SDS011;20704;51.260;22.558;2024-01-27T10:37:41;7.78;;;2.22;;
34459;SDS011;20704;51.260;22.558;2024-01-27T10:39:43;10.45;;;3.60;;
34459;SDS011;20704;51.260;22.558;2024-01-27T10:41:47;6.38;;;2.40;;
34459;SDS011;20704;51.260;22.558;2024-01-27T10:43:50;7.47;;;2.53;;
34459;SDS011;20704;51.260;22.558;2024-01-27T10:45:54;5.32;;;3.15;;
34459;SDS011;20704;51.260;22.558;2024-01-27T10:47:58;18.05;;;3.35;;
34459;SDS011;20704;51.260;22.558;2024-01-27T10:50:04;10.60;;;4.00;;
34459;SDS011;20704;51.260;22.558;2024-01-27T10:52:11;12.93;;;3.13;;
34459;SDS011;20704;51.260;22.558;2024-01-27T10:54:24;8.93;;;2.85;;
34459;SDS011;20704;51.260;22.558;2024-01-27T10:56:31;7.13;;;2.53;;
34459;SDS011;20704;51.260;22.558;2024-01-27T10:58:35;9.10;;;2.90;;
34459;SDS011;20704;51.260;22.558;2024-01-27T11:00:43;14.77;;;4.03;;
34459;SDS011;20704;51.260;22.558;2024-01-27T11:02:47;13.80;;;3.58;;
34459;SDS011;20704;51.260;22.558;2024-01-27T11:04:57;8.63;;;2.35;;
34459;SDS011;20704;51.260;22.558;2024-01-27T11:07:01;7.28;;;2.22;;
34459;SDS011;20704;51.260;22.558;2024-01-27T11:09:03;6.18;;;3.00;;
34459;SDS011;20704;51.260;22.558;2024-01-27T11:11:07;9.70;;;2.63;;
34459;SDS011;20704;51.260;22.558;2024-01-27T11:13:10;5.28;;;2.45;;
34459;SDS011;20704;51.260;22.558;2024-01-27T11:15:14;6.95;;;2.70;;
34459;SDS011;20704;51.260;22.558;2024-01-27T11:17:17;7.55;;;2.53;;
34459;SDS011;20704;51.260;22.558;2024-01-27T11:19:21;5.65;;;2.58;;
34459;SDS011;20704;51.260;22.558;2024-01-27T11:21:23;8.27;;;3.13;;
34459;SDS011;20704;51.260;22.558;2024-01-27T11:23:33;8.18;;;3.10;;
34459;SDS011;20704;51.260;22.558;2024-01-27T11:25:37;8.70;;;2.42;;
34459;SDS011;20704;51.260;22.558;2024-01-27T11:27:41;5.28;;;2.83;;
34459;SDS011;20704;51.260;22.558;2024-01-27T11:29:48;6.85;;;2.58;;
34459;SDS011;20704;51.260;22.558;2024-01-27T11:31:50;6.75;;;2.60;;
34459;SDS011;20704;51.260;22.558;2024-01-27T11:33:53;6.07;;;2.22;;
34459;SDS011;20704;51.260;22.558;2024-01-27T11:36:00;4.70;;;2.42;;
34459;SDS011;20704;51.260;22.558;2024-01-27T11:38:07;9.82;;;2.65;;
34459;SDS011;20704;51.260;22.558;2024-01-27T11:40:10;4.60;;;2.35;;
34459;SDS011;20704;51.260;22.558;2024-01-27T11:42:13;6.60;;;2.78;;
34459;SDS011;20704;51.260;22.558;2024-01-27T11:44:16;5.90;;;2.47;;
34459;SDS011;20704;51.260;22.558;2024-01-27T11:46:19;6.07;;;2.80;;
34459;SDS011;20704;51.260;22.558;2024-01-27T11:48:22;8.43;;;2.58;;
34459;SDS011;20704;51.260;22.558;2024-01-27T11:50:25;6.22;;;2.53;;
34459;SDS011;20704;51.260;22.558;2024-01-27T11:52:30;7.10;;;2.67;;
34459;SDS011;20704;51.260;22.558;2024-01-27T11:54:33;5.13;;;2.58;;
34459;SDS011;20704;51.260;22.558;2024-01-27T11:56:35;6.60;;;3.35;;
34459;SDS011;20704;51.260;22.558;2024-01-27T11:58:38;9.80;;;2.80;;
34459;SDS011;20704;51.260;22.558;2024-01-27T12:02:50;5.90;;;2.67;;
34459;SDS011;20704;51.260;22.558;2024-01-27T12:04:54;6.88;;;2.67;;
34459;SDS011;20704;51.260;22.558;2024-01-27T12:06:56;5.38;;;2.50;;
34459;SDS011;20704;51.260;22.558;2024-01-27T12:08:59;5.15;;;2.53;;
34459;SDS011;20704;51.260;22.558;2024-01-27T12:11:02;6.72;;;2.90;;